SAST,Max TemperatureF,Mean TemperatureF,Min TemperatureF,Max Dew PointF,MeanDew PointF,Min DewpointF,Max Humidity, Mean Humidity, Min Humidity, Max Sea Level PressureIn, Mean Sea Level PressureIn, Min Sea Level PressureIn, Max VisibilityMiles, Mean VisibilityMiles, Min VisibilityMiles, Max Wind SpeedMPH, Mean Wind SpeedMPH, Max Gust SpeedMPH,PrecipitationIn, CloudCover, Events, WindDirDegrees
2012-2-1,69,64,60,66,64,61,100,97,88,30.04,29.92,29.80,6,4,1,13,9,,0.00,6,Rain,258
2012-2-2,66,63,60,66,63,61,100,97,88,30.09,30.06,30.04,6,4,1,22,8,30,0.00,6,Rain,104
2012-2-3,68,65,62,64,63,63,100,98,88,30.12,30.07,30.04,6,4,1,16,8,,0.00,7,Fog-Rain,104
2012-2-4,73,68,60,64,62,57,100,88,60,30.15,30.09,30.04,6,5,1,21,9,26,0.00,6,Fog-Rain,98
2012-2-5,77,67,57,66,61,57,100,83,65,30.04,29.95,29.89,,,,17,5,,0.00,,,101
2012-2-6,89,74,59,68,62,55,100,71,37,29.89,29.77,29.68,,,,10,5,,0.00,,,126
2012-2-7,78,73,68,68,65,63,94,81,61,29.92,29.80,29.65,6,6,6,16,7,,0.00,7,,258
2012-2-8,68,64,60,66,64,59,100,93,73,29.95,29.92,29.89,6,4,1,9,5,,0.00,7,Rain,230
2012-2-9,71,64,57,61,58,55,100,80,57,29.95,29.88,29.83,6,6,6,10,4,,0.00,5,,241
2012-2-10,69,63,57,59,56,46,100,83,56,29.86,29.81,29.74,6,5,1,20,11,,0.00,6,Rain,270
2012-2-11,69,61,53,59,52,45,82,66,53,29.92,29.81,29.74,6,6,6,24,16,29,0.00,5,,272
2012-2-12,71,64,57,59,54,50,94,71,46,29.95,29.90,29.86,6,6,6,17,10,,0.00,2,,264
2012-2-13,71,65,59,61,56,54,88,74,57,29.95,29.94,29.92,6,6,6,12,6,,0.00,5,,236
2012-2-14,71,62,53,61,56,52,94,78,56,30.01,29.92,29.89,6,6,6,10,4,,0.00,4,,242
2012-2-15,69,64,57,61,59,57,100,82,64,30.01,29.96,29.92,6,6,6,13,6,,0.00,5,,145
2012-2-16,73,64,55,63,58,54,100,83,65,29.98,29.91,29.86,6,6,6,10,4,,0.00,5,,242
2012-2-17,73,68,62,63,59,57,94,77,57,30.01,29.97,29.92,6,6,6,12,4,,0.00,4,,120
2012-2-18,75,68,62,66,64,63,100,86,69,30.01,29.97,29.92,6,6,4,23,9,22,0.00,2,,105
2012-2-19,84,72,59,68,64,59,100,84,45,29.95,29.84,29.71,6,5,0,10,4,,0.00,4,Fog,128
2012-2-20,75,70,66,68,64,59,100,81,61,29.98,29.86,29.74,6,6,5,17,8,,0.00,3,Rain,243
2012-2-21,75,68,60,66,63,57,100,83,64,29.98,29.91,29.86,6,6,6,12,5,,0.00,4,Rain,267
2012-2-22,86,72,57,66,61,55,100,74,40,29.86,29.72,29.62,6,6,6,24,7,36,0.00,2,,233
2012-2-23,73,66,57,57,55,54,88,69,53,29.98,29.95,29.89,6,6,6,17,12,,0.00,3,,226
2012-2-24,77,65,53,61,57,52,94,77,44,29.95,29.88,29.83,6,6,6,15,4,,0.00,4,,68
2012-2-25,73,64,55,63,60,54,100,85,69,29.95,29.90,29.86,6,6,6,10,4,,0.00,2,,224
2012-2-26,78,68,57,63,59,55,100,80,51,29.98,29.92,29.89,6,6,6,12,4,,0.00,2,,91
2012-2-27,80,68,57,66,62,57,100,83,61,29.98,29.88,29.77,6,6,4,12,5,,0.00,2,,72
2012-2-28,73,66,59,66,57,48,88,73,52,29.83,29.77,29.71,6,6,6,16,6,,0.00,4,,286
2012-2-29,71,68,66,63,59,57,88,76,64,30.04,29.98,29.92,6,6,6,12,6,,0.00,7,,119